createdAt,value
2019-05-22T00:02:25.437Z,100880.84
2019-05-22T00:04:58.339Z,100888.03
2019-05-22T00:07:32.083Z,100878.47
2019-05-22T00:10:02.538Z,100884.52
2019-05-22T00:12:46.030Z,100880.07
2019-05-22T00:15:11.835Z,100875.91
2019-05-22T00:17:45.846Z,100873.16
2019-05-22T00:20:16.337Z,100877.66
2019-05-22T00:22:51.178Z,100882.78
2019-05-22T00:25:25.651Z,100887.64
2019-05-22T00:27:56.731Z,100886.52
2019-05-22T00:30:28.941Z,100889.14
2019-05-22T00:33:00.551Z,100892.72
2019-05-22T00:35:31.480Z,100895.85
2019-05-22T00:38:03.520Z,100892.17
2019-05-22T00:40:38.044Z,100896.73
2019-05-22T00:43:13.770Z,100896.75
2019-05-22T00:45:42.760Z,100900.12
2019-05-22T00:48:16.341Z,100902.36
2019-05-22T00:50:54.539Z,100896.73
2019-05-22T00:53:29.237Z,100907.09
2019-05-22T00:56:05.521Z,100903.02
2019-05-22T00:58:41.128Z,100916.33
2019-05-22T01:01:16.633Z,100905.72
2019-05-22T01:03:48.576Z,100905.22
2019-05-22T01:06:21.547Z,100905.45
2019-05-22T01:08:52.804Z,100901.34
2019-05-22T01:11:29.579Z,100907.27
2019-05-22T01:14:02.195Z,100899.41
2019-05-22T01:16:32.960Z,100896.85
2019-05-22T01:19:05.846Z,100899.43
2019-05-22T01:21:37.541Z,100902.77
2019-05-22T01:24:07.833Z,100912.63
2019-05-22T01:26:39.508Z,100911.26
2019-05-22T01:29:11.562Z,100910.78
2019-05-22T01:31:44.744Z,100904.70
2019-05-22T01:34:16.425Z,100912.06
2019-05-22T01:36:48.338Z,100903.04
2019-05-22T01:39:27.279Z,100912.57
2019-05-22T01:42:00.769Z,100916.94
2019-05-22T01:44:36.014Z,100920.25
2019-05-22T01:47:13.545Z,100923.31
2019-05-22T01:49:51.104Z,100925.19
2019-05-22T01:52:23.239Z,100924.17
2019-05-22T01:54:55.332Z,100926.73
2019-05-22T01:57:28.582Z,100924.23
2019-05-22T01:59:59.165Z,100927.86
2019-05-22T02:02:30.553Z,100931.28
2019-05-22T02:05:01.921Z,100938.52
2019-05-22T02:07:35.011Z,100938.14
2019-05-22T02:10:10.818Z,100936.91
2019-05-22T02:12:52.723Z,100940.39
2019-05-22T02:15:24.952Z,100947.06
2019-05-22T02:17:56.596Z,100948.42
2019-05-22T02:20:29.014Z,100949.13
2019-05-22T02:22:59.904Z,100943.50
2019-05-22T02:25:32.655Z,100955.28
2019-05-22T02:28:04.041Z,100956.70
2019-05-22T02:30:38.647Z,100962.94
2019-05-22T02:33:13.332Z,100969.44
2019-05-22T02:35:43.407Z,100973.05
2019-05-22T02:38:16.866Z,100977.26
2019-05-22T02:40:51.804Z,100973.13
2019-05-22T02:43:24.643Z,100969.03
2019-05-22T02:45:54.811Z,100973.72
2019-05-22T02:48:28.242Z,100970.82
2019-05-22T02:51:02.835Z,100977.75
2019-05-22T02:53:33.403Z,100980.42
2019-05-22T02:56:04.012Z,100975.25
2019-05-22T02:58:34.678Z,100975.95
2019-05-22T03:01:06.550Z,100988.34
2019-05-22T03:03:37.568Z,100985.52
2019-05-22T03:06:14.159Z,100990.75
2019-05-22T03:09:01.000Z,100990.33
2019-05-22T03:11:43.847Z,100994.25
2019-05-22T03:14:15.876Z,100995.98
2019-05-22T03:16:52.044Z,100993.65
2019-05-22T03:19:47.961Z,100993.37
2019-05-22T03:22:21.462Z,101005.64
2019-05-22T03:25:01.983Z,101002.48
2019-05-22T03:27:40.411Z,101005.64
2019-05-22T03:30:25.807Z,101012.08
2019-05-22T03:33:01.199Z,101000.41
2019-05-22T03:35:34.805Z,101011.59
2019-05-22T03:38:08.535Z,101001.92
2019-05-22T03:40:39.523Z,101007.66
2019-05-22T03:43:18.528Z,101009.47
2019-05-22T03:45:50.689Z,101014.41
2019-05-22T03:48:22.672Z,101013.89
2019-05-22T03:50:59.783Z,101027.79
2019-05-22T03:53:31.777Z,101004.44
2019-05-22T03:56:03.060Z,101019.78
2019-05-22T03:58:34.668Z,101024.96
2019-05-22T04:01:06.895Z,101028.89
2019-05-22T04:03:37.040Z,101035.36
2019-05-22T04:06:08.606Z,101033.52
2019-05-22T04:08:42.527Z,101043.21
2019-05-22T04:11:14.541Z,101033.02
2019-05-22T04:13:47.765Z,101034.83
2019-05-22T04:16:19.517Z,101039.57
2019-05-22T04:18:51.258Z,101036.06
2019-05-22T04:21:21.664Z,101034.83
2019-05-22T04:23:52.051Z,101031.22
2019-05-22T04:26:24.027Z,101044.31
2019-05-22T04:28:55.865Z,101047.69
2019-05-22T04:31:34.807Z,101045.83
2019-05-22T04:34:05.612Z,101047.97
2019-05-22T04:36:36.965Z,101050.53
2019-05-22T04:39:12.241Z,101056.59
2019-05-22T04:41:44.061Z,101047.53
2019-05-22T04:44:16.283Z,101057.02
2019-05-22T04:46:47.852Z,101055.77
2019-05-22T04:49:18.563Z,101060.25
2019-05-22T04:51:49.033Z,101058.50
2019-05-22T04:54:19.609Z,101072.30
2019-05-22T04:56:49.877Z,101067.06
2019-05-22T04:59:20.480Z,101059.20
2019-05-22T05:01:51.148Z,101066.34
2019-05-22T05:04:22.875Z,101070.17
2019-05-22T05:06:53.918Z,101069.34
2019-05-22T05:09:24.645Z,101069.39
2019-05-22T05:11:55.258Z,101072.13
2019-05-22T05:14:25.389Z,101071.63
2019-05-22T05:16:55.853Z,101076.28
2019-05-22T05:19:26.401Z,101080.19
2019-05-22T05:21:57.049Z,101088.33
2019-05-22T05:24:27.656Z,101090.55
2019-05-22T05:27:01.967Z,101092.47
2019-05-22T05:29:35.057Z,101098.90
2019-05-22T05:32:05.909Z,101090.34
2019-05-22T05:34:48.014Z,101092.05
2019-05-22T05:37:20.218Z,101094.16
2019-05-22T05:40:12.425Z,101099.90
2019-05-22T05:42:42.660Z,101096.78
2019-05-22T05:45:15.289Z,101105.84
2019-05-22T05:47:45.960Z,101106.16
2019-05-22T05:50:16.630Z,101111.83
2019-05-22T05:52:47.316Z,101119.03
2019-05-22T05:55:17.707Z,101111.47
2019-05-22T05:57:51.161Z,101118.60
2019-05-22T06:00:28.242Z,101119.96
2019-05-22T06:03:29.115Z,101111.29
2019-05-22T06:06:04.702Z,101119.47
2019-05-22T06:08:34.926Z,101124.23
2019-05-22T06:11:34.497Z,101124.28
2019-05-22T06:14:11.948Z,101131.03
2019-05-22T06:16:51.119Z,101126.67
2019-05-22T06:19:22.459Z,101129.02
2019-05-22T06:21:53.485Z,101140.26
2019-05-22T06:24:33.150Z,101143.64
2019-05-22T06:27:10.911Z,101147.08
2019-05-22T06:29:44.867Z,101142.22
2019-05-22T06:32:34.618Z,101147.80
2019-05-22T06:35:07.778Z,101150.89
2019-05-22T06:37:53.046Z,101155.80
2019-05-22T06:40:23.776Z,101158.32
2019-05-22T06:43:24.690Z,101155.31
2019-05-22T06:45:55.620Z,101155.26
2019-05-22T06:48:25.755Z,101156.73
2019-05-22T06:50:57.110Z,101168.30
2019-05-22T06:53:27.296Z,101168.67
2019-05-22T06:55:59.033Z,101166.54
2019-05-22T06:58:29.335Z,101160.54
2019-05-22T07:00:59.900Z,101174.17
2019-05-22T07:03:30.905Z,101173.78
2019-05-22T07:06:02.894Z,101173.01
2019-05-22T07:08:33.257Z,101183.42
2019-05-22T07:11:03.278Z,101181.73
2019-05-22T07:13:34.222Z,101184.38
2019-05-22T07:16:06.126Z,101193.80
2019-05-22T07:18:36.369Z,101188.99
2019-05-22T07:21:06.718Z,101183.96
2019-05-22T07:23:39.609Z,101192.80
2019-05-22T07:26:10.489Z,101195.74
2019-05-22T07:28:41.280Z,101190.91
2019-05-22T07:31:11.918Z,101188.18
2019-05-22T07:33:42.257Z,101191.73
2019-05-22T07:36:16.792Z,101200.13
2019-05-22T07:38:45.426Z,101193.75
2019-05-22T07:41:15.897Z,101200.45
2019-05-22T07:43:47.569Z,101195.91
2019-05-22T07:46:19.480Z,101200.35
2019-05-22T07:48:49.739Z,101208.81
2019-05-22T07:51:21.517Z,101213.59
2019-05-22T07:53:51.756Z,101216.92
2019-05-22T07:56:23.076Z,101214.53
2019-05-22T07:58:54.454Z,101213.78
2019-05-22T08:01:24.694Z,101221.30
2019-05-22T08:03:57.443Z,101221.09
2019-05-22T08:06:29.520Z,101229.48
2019-05-22T08:09:00.380Z,101233.43
2019-05-22T08:11:31.313Z,101234.94
2019-05-22T08:14:02.095Z,101237.66
2019-05-22T08:16:32.521Z,101242.36
2019-05-22T08:19:03.069Z,101241.93
2019-05-22T08:21:33.412Z,101245.83
2019-05-22T08:24:04.203Z,101244.56
2019-05-22T08:26:53.220Z,101249.31
2019-05-22T08:29:09.864Z,101251.02
2019-05-22T08:31:41.536Z,101255.39
2019-05-22T08:34:11.833Z,101249.48
2019-05-22T08:36:42.086Z,101262.97
2019-05-22T08:39:14.040Z,101268.97
2019-05-22T08:41:44.918Z,101270.43
2019-05-22T08:44:17.493Z,101271.41
2019-05-22T08:46:47.747Z,101276.16
2019-05-22T08:49:18.313Z,101283.53
2019-05-22T08:51:49.661Z,101286.05
2019-05-22T08:54:20.221Z,101283.19
2019-05-22T08:56:51.543Z,101281.23
2019-05-22T08:59:25.271Z,101287.27
2019-05-22T09:01:57.218Z,101281.58
2019-05-22T09:04:27.418Z,101287.94
2019-05-22T09:06:58.946Z,101300.06
2019-05-22T09:09:29.317Z,101291.09
2019-05-22T09:12:02.297Z,101295.31
2019-05-22T09:14:35.715Z,101294.25
2019-05-22T09:17:07.569Z,101300.55
2019-05-22T09:19:37.949Z,101301.03
2019-05-22T09:22:09.011Z,101300.78
2019-05-22T09:24:39.123Z,101306.36
2019-05-22T09:27:11.533Z,101311.11
2019-05-22T09:29:43.220Z,101315.92
2019-05-22T09:32:13.341Z,101311.11
2019-05-22T09:34:44.574Z,101316.63
2019-05-22T09:37:21.839Z,101318.49
2019-05-22T09:39:47.340Z,101318.72
2019-05-22T09:42:18.449Z,101317.90
2019-05-22T09:44:48.772Z,101327.36
2019-05-22T09:47:23.710Z,101320.77
2019-05-22T09:49:53.853Z,101327.11
2019-05-22T09:52:24.254Z,101327.70
2019-05-22T09:54:54.679Z,101325.66
2019-05-22T09:57:25.899Z,101339.53
2019-05-22T09:59:57.670Z,101334.15
2019-05-22T10:02:30.964Z,101337.20
2019-05-22T10:05:01.272Z,101343.84
2019-05-22T10:07:32.961Z,101342.67
2019-05-22T10:10:04.001Z,101347.86
2019-05-22T10:12:34.439Z,101350.20
2019-05-22T10:15:08.256Z,101351.88
2019-05-22T10:17:42.369Z,101360.38
2019-05-22T10:20:13.651Z,101354.76
2019-05-22T10:22:43.855Z,101359.86
2019-05-22T10:25:17.173Z,101358.30
2019-05-22T10:27:49.978Z,101360.66
2019-05-22T10:30:23.418Z,101360.50
2019-05-22T10:32:53.519Z,101360.50
2019-05-22T10:35:26.867Z,101369.89
2019-05-22T10:37:57.732Z,101367.87
2019-05-22T10:40:28.341Z,101363.78
2019-05-22T10:42:58.446Z,101360.98
2019-05-22T10:45:28.749Z,101372.03
2019-05-22T10:47:59.002Z,101369.73
2019-05-22T10:50:29.925Z,101377.77
2019-05-22T10:53:00.246Z,101381.59
2019-05-22T10:55:31.944Z,101377.21
2019-05-22T10:58:02.346Z,101384.75
2019-05-22T11:00:33.137Z,101381.14
2019-05-22T11:03:04.341Z,101385.73
2019-05-22T11:05:35.212Z,101381.98
2019-05-22T11:08:06.601Z,101382.80
2019-05-22T11:10:36.979Z,101386.30
2019-05-22T11:13:07.553Z,101377.62
2019-05-22T11:15:37.789Z,101385.66
2019-05-22T11:18:08.189Z,101382.58
2019-05-22T11:20:38.379Z,101376.94
2019-05-22T11:23:09.385Z,101379.58
2019-05-22T11:25:39.710Z,101374.72
2019-05-22T11:28:09.771Z,101382.59
2019-05-22T11:30:40.512Z,101378.29
2019-05-22T11:33:11.263Z,101377.66
2019-05-22T11:35:41.664Z,101382.98
2019-05-22T11:38:11.675Z,101380.55
2019-05-22T11:40:41.996Z,101380.98
2019-05-22T11:43:13.088Z,101376.31
2019-05-22T11:45:45.395Z,101380.78
2019-05-22T11:48:16.286Z,101375.22
2019-05-22T11:50:46.766Z,101388.80
2019-05-22T11:53:16.941Z,101384.03
2019-05-22T11:55:47.584Z,101386.42
2019-05-22T11:58:18.387Z,101383.34
2019-05-22T12:00:48.538Z,101380.13
2019-05-22T12:03:19.167Z,101378.45
2019-05-22T12:05:49.363Z,101380.94
2019-05-22T12:08:19.716Z,101383.58
2019-05-22T12:10:51.349Z,101382.42
2019-05-22T12:13:21.713Z,101378.98
2019-05-22T12:15:53.100Z,101379.55
2019-05-22T12:18:23.928Z,101380.75
2019-05-22T12:20:54.494Z,101381.44
2019-05-22T12:23:25.016Z,101377.20
2019-05-22T12:25:56.033Z,101379.49
2019-05-22T12:28:26.574Z,101385.95
2019-05-22T12:30:57.683Z,101380.30
2019-05-22T12:33:28.543Z,101380.25
2019-05-22T12:35:59.517Z,101392.21
2019-05-22T12:38:32.849Z,101391.52
2019-05-22T12:41:04.446Z,101384.37
2019-05-22T12:43:35.194Z,101390.48
2019-05-22T12:46:05.255Z,101389.80
2019-05-22T12:48:36.638Z,101387.02
2019-05-22T12:51:08.042Z,101390.45
2019-05-22T12:53:38.621Z,101384.86
2019-05-22T12:56:09.105Z,101384.99
2019-05-22T12:58:40.304Z,101387.21
2019-05-22T13:01:10.909Z,101391.55
2019-05-22T13:03:42.143Z,101394.62
2019-05-22T13:06:12.980Z,101398.47
2019-05-22T13:08:43.356Z,101398.53
2019-05-22T13:11:14.396Z,101396.29
2019-05-22T13:13:46.488Z,101394.83
2019-05-22T13:16:18.088Z,101394.53
2019-05-22T13:18:48.506Z,101400.09
2019-05-22T13:21:22.544Z,101397.27
2019-05-22T13:23:53.443Z,101396.33
2019-05-22T13:26:25.369Z,101393.77
2019-05-22T13:28:57.693Z,101396.06
2019-05-22T13:31:28.230Z,101396.19
2019-05-22T13:34:00.563Z,101402.80
2019-05-22T13:36:30.824Z,101389.73
2019-05-22T13:39:01.369Z,101394.31
2019-05-22T13:41:33.673Z,101400.39
2019-05-22T13:44:06.006Z,101398.27
2019-05-22T13:46:36.939Z,101402.91
2019-05-22T13:49:10.903Z,101400.25
2019-05-22T13:51:41.165Z,101410.41
2019-05-22T13:54:16.463Z,101399.97
2019-05-22T13:56:47.613Z,101407.59
2019-05-22T13:59:18.337Z,101409.03
2019-05-22T14:01:48.764Z,101403.34
2019-05-22T14:04:18.864Z,101409.67
2019-05-22T14:06:49.488Z,101415.36
2019-05-22T14:09:21.594Z,101412.92
2019-05-22T14:11:54.087Z,101418.14
2019-05-22T14:14:27.539Z,101421.53
2019-05-22T14:16:57.548Z,101425.00
2019-05-22T14:19:27.825Z,101421.80
2019-05-22T14:21:58.187Z,101420.27
2019-05-22T14:24:28.270Z,101429.05
2019-05-22T14:26:58.401Z,101428.84
2019-05-22T14:29:28.756Z,101420.09
2019-05-22T14:31:58.926Z,101419.95
2019-05-22T14:34:29.951Z,101423.39
2019-05-22T14:37:00.093Z,101422.27
2019-05-22T14:39:32.527Z,101424.30
2019-05-22T14:42:04.731Z,101420.75
2019-05-22T14:44:38.053Z,101423.02
2019-05-22T14:47:14.616Z,101421.98
2019-05-22T14:49:43.969Z,101423.55
2019-05-22T14:52:18.140Z,101424.76
2019-05-22T14:54:49.506Z,101423.96
2019-05-22T14:57:22.963Z,101423.00
2019-05-22T14:59:54.167Z,101416.63
2019-05-22T15:02:24.493Z,101418.39
2019-05-22T15:05:03.136Z,101423.36
2019-05-22T15:07:33.598Z,101420.28
2019-05-22T15:10:05.731Z,101411.73
2019-05-22T15:12:36.222Z,101415.11
2019-05-22T15:15:08.520Z,101403.91
2019-05-22T15:17:38.712Z,101406.31
2019-05-22T15:20:12.766Z,101418.17
2019-05-22T15:22:42.931Z,101407.48
2019-05-22T15:25:17.665Z,101410.66
2019-05-22T15:27:48.331Z,101405.58
2019-05-22T15:30:19.841Z,101408.12
2019-05-22T15:32:49.879Z,101400.34
2019-05-22T15:35:20.317Z,101403.52
2019-05-22T15:37:53.783Z,101402.61
2019-05-22T15:40:25.213Z,101396.41
2019-05-22T15:42:55.297Z,101389.86
2019-05-22T15:45:27.472Z,101388.91
2019-05-22T15:48:00.723Z,101386.88
2019-05-22T15:50:33.943Z,101390.45
2019-05-22T15:53:10.998Z,101387.41
2019-05-22T15:55:42.639Z,101387.41
2019-05-22T15:58:15.273Z,101387.73
2019-05-22T16:00:47.600Z,101387.31
2019-05-22T16:03:22.036Z,101392.06
2019-05-22T16:05:54.090Z,101384.35
2019-05-22T16:08:24.736Z,101390.34
2019-05-22T16:10:59.745Z,101393.65
2019-05-22T16:13:32.163Z,101391.02
2019-05-22T16:16:05.726Z,101390.27
2019-05-22T16:18:38.943Z,101387.93
2019-05-22T16:21:11.453Z,101387.21
2019-05-22T16:23:43.142Z,101388.53
2019-05-22T16:26:17.670Z,101388.39
2019-05-22T16:28:49.182Z,101389.84
2019-05-22T16:31:20.400Z,101402.31
2019-05-22T16:33:53.542Z,101400.36
2019-05-22T16:36:24.262Z,101393.59
2019-05-22T16:38:54.703Z,101401.91
2019-05-22T16:41:25.830Z,101408.03
2019-05-22T16:43:56.871Z,101398.50
2019-05-22T16:46:27.877Z,101404.22
2019-05-22T16:48:58.915Z,101403.12
2019-05-22T16:51:30.500Z,101400.97
2019-05-22T16:54:10.293Z,101402.11
2019-05-22T16:56:41.516Z,101399.41
2019-05-22T16:59:14.440Z,101400.42
2019-05-22T17:01:58.637Z,101395.02
2019-05-22T17:04:18.571Z,101403.23
2019-05-22T17:06:49.573Z,101405.55
2019-05-22T17:09:21.404Z,101405.12
2019-05-22T17:11:52.547Z,101405.36
2019-05-22T17:14:23.725Z,101406.98
2019-05-22T17:16:56.427Z,101403.45
2019-05-22T17:19:28.037Z,101406.61
2019-05-22T17:21:59.634Z,101397.50
2019-05-22T17:24:33.997Z,101402.08
2019-05-22T17:27:04.574Z,101404.62
2019-05-22T17:29:35.283Z,101401.42
2019-05-22T17:32:06.316Z,101402.37
2019-05-22T17:34:37.717Z,101401.57
2019-05-22T17:37:11.940Z,101402.09
2019-05-22T17:39:44.368Z,101398.20
2019-05-22T17:42:17.417Z,101396.00
2019-05-22T17:44:49.675Z,101395.64
2019-05-22T17:47:21.818Z,101390.57
2019-05-22T17:49:53.310Z,101391.53
2019-05-22T17:52:24.428Z,101391.60
2019-05-22T17:54:55.030Z,101395.33
2019-05-22T17:57:25.206Z,101395.39
2019-05-22T17:59:55.795Z,101395.66
2019-05-22T18:02:27.465Z,101399.37
2019-05-22T18:04:57.656Z,101400.47
2019-05-22T18:07:28.525Z,101398.83
2019-05-22T18:10:00.369Z,101403.48
2019-05-22T18:12:30.847Z,101410.25
2019-05-22T18:15:02.378Z,101406.45
2019-05-22T18:17:33.679Z,101406.77
2019-05-22T18:20:07.954Z,101411.91
2019-05-22T18:22:38.561Z,101415.63
2019-05-22T18:25:09.370Z,101413.87
2019-05-22T18:27:42.399Z,101414.83
2019-05-22T18:30:14.372Z,101414.65
2019-05-22T18:32:44.359Z,101406.02
2019-05-22T18:35:15.137Z,101407.39
2019-05-22T18:37:45.220Z,101408.88
2019-05-22T18:40:16.419Z,101412.70
2019-05-22T18:42:46.436Z,101406.45
2019-05-22T18:45:17.270Z,101413.27
2019-05-22T18:47:47.591Z,101414.78
2019-05-22T18:50:18.551Z,101419.84
2019-05-22T18:52:50.209Z,101417.02
2019-05-22T18:55:20.747Z,101419.41
2019-05-22T18:57:51.002Z,101423.13
2019-05-22T19:00:28.146Z,101427.33
2019-05-22T19:02:58.540Z,101425.81
2019-05-22T19:05:31.633Z,101430.53
2019-05-22T19:08:01.988Z,101426.46
2019-05-22T19:10:32.241Z,101432.87
2019-05-22T19:13:02.772Z,101434.50
2019-05-22T19:15:33.712Z,101438.22
2019-05-22T19:18:04.453Z,101445.38
2019-05-22T19:20:37.250Z,101442.54
2019-05-22T19:23:09.037Z,101441.40
2019-05-22T19:25:39.202Z,101449.38
2019-05-22T19:28:11.082Z,101446.92
2019-05-22T19:30:43.813Z,101449.30
2019-05-22T19:33:16.697Z,101446.39
2019-05-22T19:35:49.569Z,101448.25
2019-05-22T19:38:22.852Z,101454.52
2019-05-22T19:40:51.934Z,101454.72
2019-05-22T19:43:22.315Z,101454.06
2019-05-22T19:45:52.730Z,101453.30
2019-05-22T19:48:23.166Z,101455.62
2019-05-22T19:50:54.905Z,101459.31
2019-05-22T19:53:25.246Z,101461.78
2019-05-22T19:55:56.063Z,101459.41
2019-05-22T19:58:26.893Z,101465.22
2019-05-22T20:00:57.053Z,101466.77
2019-05-22T20:03:33.212Z,101477.38
2019-05-22T20:06:00.468Z,101479.27
2019-05-22T20:08:32.101Z,101476.74
2019-05-22T20:11:05.936Z,101474.69
2019-05-22T20:13:36.563Z,101480.55
2019-05-22T20:16:06.587Z,101483.24
2019-05-22T20:18:36.852Z,101482.03
2019-05-22T20:21:06.913Z,101481.77
2019-05-22T20:23:37.347Z,101484.63
2019-05-22T20:26:07.830Z,101488.33
2019-05-22T20:28:39.479Z,101488.45
2019-05-22T20:31:09.492Z,101489.05
2019-05-22T20:33:39.826Z,101483.90
2019-05-22T20:36:10.827Z,101485.73
2019-05-22T20:38:41.111Z,101481.88
2019-05-22T20:41:12.736Z,101480.14
2019-05-22T20:43:43.380Z,101488.98
2019-05-22T20:46:15.804Z,101487.31
2019-05-22T20:48:45.813Z,101491.20
2019-05-22T20:51:18.383Z,101493.70
2019-05-22T20:53:54.302Z,101490.56
2019-05-22T20:56:21.708Z,101485.73
2019-05-22T20:58:52.546Z,101491.39
2019-05-22T21:01:22.829Z,101488.86
2019-05-22T21:03:57.482Z,101495.91
2019-05-22T21:06:29.006Z,101497.82
2019-05-22T21:09:00.399Z,101496.23
2019-05-22T21:11:32.535Z,101496.02
2019-05-22T21:14:03.327Z,101502.75
2019-05-22T21:16:34.266Z,101508.09
2019-05-22T21:19:04.712Z,101502.96
2019-05-22T21:21:34.974Z,101506.52
2019-05-22T21:24:11.371Z,101510.95
2019-05-22T21:26:41.411Z,101507.16
2019-05-22T21:29:12.498Z,101510.82
2019-05-22T21:31:47.508Z,101509.25
2019-05-22T21:34:16.941Z,101505.56
2019-05-22T21:36:47.554Z,101512.19
2019-05-22T21:39:20.057Z,101514.43
2019-05-22T21:41:50.399Z,101514.84
2019-05-22T21:44:20.487Z,101520.00
2019-05-22T21:46:53.618Z,101517.32
2019-05-22T21:49:25.744Z,101513.40
2019-05-22T21:51:56.117Z,101510.45
2019-05-22T21:54:27.054Z,101519.16
2019-05-22T21:56:57.244Z,101520.93
2019-05-22T21:59:31.409Z,101522.23
2019-05-22T22:02:12.494Z,101527.87
2019-05-22T22:04:43.348Z,101527.30
2019-05-22T22:07:14.156Z,101524.63
2019-05-22T22:09:44.970Z,101526.80
2019-05-22T22:12:18.335Z,101527.23
2019-05-22T22:14:49.753Z,101533.43
2019-05-22T22:17:27.308Z,101529.17
2019-05-22T22:19:57.759Z,101534.02
2019-05-22T22:22:29.590Z,101530.66
2019-05-22T22:24:59.748Z,101530.81
2019-05-22T22:27:32.191Z,101534.48
2019-05-22T22:30:03.924Z,101542.95
2019-05-22T22:32:39.487Z,101538.72
2019-05-22T22:35:12.477Z,101546.60
2019-05-22T22:37:43.945Z,101546.11
2019-05-22T22:40:17.900Z,101551.30
2019-05-22T22:42:51.251Z,101550.87
2019-05-22T22:45:23.940Z,101550.08
2019-05-22T22:47:54.007Z,101550.24
2019-05-22T22:50:25.472Z,101552.49
2019-05-22T22:52:55.807Z,101561.70
2019-05-22T22:55:28.175Z,101561.30
2019-05-22T22:58:16.153Z,101551.27
2019-05-22T23:00:38.790Z,101548.61
2019-05-22T23:03:14.691Z,101549.55
2019-05-22T23:05:49.244Z,101549.55
2019-05-22T23:08:25.350Z,101557.35
2019-05-22T23:10:56.377Z,101563.03
2019-05-22T23:13:29.643Z,101557.86
2019-05-22T23:16:03.323Z,101556.63
2019-05-22T23:18:44.358Z,101550.59
2019-05-22T23:21:14.844Z,101561.03
2019-05-22T23:23:46.128Z,101552.36
2019-05-22T23:26:20.531Z,101561.53
2019-05-22T23:28:50.817Z,101559.36
2019-05-22T23:31:24.977Z,101556.78
2019-05-22T23:33:56.867Z,101556.78
2019-05-22T23:36:30.044Z,101561.53
2019-05-22T23:39:04.236Z,101563.34
2019-05-22T23:41:37.100Z,101562.95
2019-05-22T23:44:11.692Z,101556.95
2019-05-22T23:46:43.041Z,101556.59
2019-05-22T23:49:13.981Z,101559.66
2019-05-22T23:51:48.166Z,101557.61
2019-05-22T23:54:18.527Z,101557.56
2019-05-22T23:56:49.909Z,101557.56
2019-05-22T23:59:20.320Z,101552.78
